Time,TemperatureF,DewpointF,PressureIn,WindDirection,WindDirectionDegrees,WindSpeedMPH,WindSpeedGustMPH,Humidity,HourlyPrecipIn,Conditions,Clouds,dailyrainin,SoftwareType,DateUTC
2013-11-22 00:01:00,14.2,9.4,29.17,SE,135,0.0,0.0,81,0.00,,,0.00,WeatherCatV1.23B16,2013-11-22 09:01:00,
2013-11-22 00:06:00,14.4,9.6,29.17,SSE,157,0.0,0.0,81,0.00,,,0.00,WeatherCatV1.23B16,2013-11-22 09:06:00,
2013-11-22 00:11:00,14.4,9.6,29.16,South,180,0.0,0.0,81,0.00,,,0.00,WeatherCatV1.23B16,2013-11-22 09:11:00,
2013-11-22 00:16:00,14.4,9.6,29.17,WSW,247,0.0,0.0,81,0.00,,,0.00,WeatherCatV1.23B16,2013-11-22 09:16:00,
2013-11-22 00:21:00,14.2,9.4,29.14,West,270,0.0,0.0,81,0.00,,,0.00,WeatherCatV1.23B16,2013-11-22 09:21:00,
2013-11-22 00:26:00,14.2,9.4,29.15,ENE,67,0.0,0.0,81,0.00,,,0.00,WeatherCatV1.23B16,2013-11-22 09:26:00,
2013-11-22 00:31:00,14.0,9.5,29.13,NNW,337,0.0,0.0,82,0.00,,,0.00,WeatherCatV1.23B16,2013-11-22 09:31:00,
2013-11-22 00:36:00,15.6,11.3,29.13,NNE,22,0.0,0.0,83,0.00,,,0.00,WeatherCatV1.23B16,2013-11-22 09:36:00,
2013-11-22 00:41:00,17.8,13.9,29.13,WSW,247,0.0,0.0,85,0.00,,,0.00,WeatherCatV1.23B16,2013-11-22 09:41:00,
2013-11-22 00:46:00,18.5,14.9,29.13,ENE,67,0.0,0.0,86,0.00,,,0.00,WeatherCatV1.23B16,2013-11-22 09:46:00,
2013-11-22 00:51:00,19.6,16.0,29.12,WNW,292,0.0,0.0,86,0.00,,,0.00,WeatherCatV1.23B16,2013-11-22 09:51:00,
2013-11-22 00:56:00,19.8,16.0,29.12,NW,315,0.0,0.0,86,0.00,,,0.00,WeatherCatV1.23B16,2013-11-22 09:56:00,
2013-11-22 01:01:00,19.8,16.2,29.13,ESE,112,0.0,0.0,86,0.00,,,0.00,WeatherCatV1.23B16,2013-11-22 10:01:00,
2013-11-22 01:06:00,19.8,16.2,29.12,ESE,112,0.0,0.0,86,0.00,,,0.00,WeatherCatV1.23B16,2013-11-22 10:06:00,
2013-11-22 01:11:00,19.2,15.6,29.12,North,0,0.0,0.0,86,0.00,,,0.00,WeatherCatV1.23B16,2013-11-22 10:11:00,
2013-11-22 01:16:00,19.2,15.4,29.13,SW,225,0.0,0.0,85,0.00,,,0.00,WeatherCatV1.23B16,2013-11-22 10:16:00,
2013-11-22 01:21:00,18.9,15.0,29.12,West,270,0.0,0.0,85,0.00,,,0.00,WeatherCatV1.23B16,2013-11-22 10:21:00,
2013-11-22 01:26:00,20.1,16.8,29.11,SW,225,0.0,0.0,87,0.00,,,0.00,WeatherCatV1.23B16,2013-11-22 10:26:00,
2013-11-22 01:31:00,20.8,17.5,29.12,WNW,292,0.0,0.0,87,0.00,,,0.00,WeatherCatV1.23B16,2013-11-22 10:31:00,
2013-11-22 01:36:00,20.8,17.5,29.11,North,0,0.0,0.0,87,0.00,,,0.00,WeatherCatV1.23B16,2013-11-22 10:36:00,
2013-11-22 01:41:00,21.6,18.2,29.11,West,270,0.0,0.0,87,0.00,,,0.00,WeatherCatV1.23B16,2013-11-22 10:41:00,
2013-11-22 01:46:00,21.7,18.4,29.10,NW,315,0.0,0.0,87,0.00,,,0.00,WeatherCatV1.23B16,2013-11-22 10:46:00,
2013-11-22 01:51:00,22.3,19.0,29.09,NNW,337,0.0,0.0,87,0.00,,,0.00,WeatherCatV1.23B16,2013-11-22 10:51:00,
2013-11-22 01:56:00,23.2,20.1,29.10,SSE,157,0.0,0.0,88,0.00,,,0.00,WeatherCatV1.23B16,2013-11-22 10:56:00,
2013-11-22 02:01:00,22.8,19.5,29.10,WNW,292,5.1,5.1,87,0.00,,,0.00,WeatherCatV1.23B16,2013-11-22 11:01:00,
2013-11-22 02:06:00,21.7,18.1,29.10,NW,315,0.0,0.0,86,0.00,,,0.00,WeatherCatV1.23B16,2013-11-22 11:06:00,
2013-11-22 02:11:00,21.9,18.3,29.09,NW,315,0.0,0.0,86,0.00,,,0.00,WeatherCatV1.23B16,2013-11-22 11:11:00,
2013-11-22 02:16:00,22.6,19.3,29.09,SSE,157,5.4,5.4,87,0.00,,,0.00,WeatherCatV1.23B16,2013-11-22 11:16:00,
2013-11-22 02:21:00,22.1,18.5,29.08,North,0,0.0,0.0,86,0.00,,,0.00,WeatherCatV1.23B16,2013-11-22 11:21:00,
2013-11-22 02:26:00,21.9,18.3,29.08,NW,315,0.0,0.0,86,0.00,,,0.00,WeatherCatV1.23B16,2013-11-22 11:26:00,
2013-11-22 02:31:00,22.3,18.7,29.08,NW,315,0.7,0.7,86,0.00,,,0.00,WeatherCatV1.23B16,2013-11-22 11:31:00,
2013-11-22 02:36:00,22.3,18.7,29.08,NW,315,0.0,0.0,86,0.00,,,0.00,WeatherCatV1.23B16,2013-11-22 11:36:00,
2013-11-22 02:41:00,22.8,19.5,29.08,SW,225,6.9,6.9,87,0.00,,,0.00,WeatherCatV1.23B16,2013-11-22 11:41:00,
2013-11-22 02:46:00,22.3,18.7,29.08,South,180,0.0,0.0,86,0.00,,,0.00,WeatherCatV1.23B16,2013-11-22 11:46:00,
2013-11-22 02:51:00,21.9,18.0,29.09,NNW,337,0.0,0.0,85,0.00,,,0.00,WeatherCatV1.23B16,2013-11-22 11:51:00,
2013-11-22 02:56:00,21.9,18.3,29.08,NW,315,6.3,6.3,86,0.00,,,0.00,WeatherCatV1.23B16,2013-11-22 11:56:00,
2013-11-22 03:01:00,21.9,18.3,29.08,SSW,202,0.0,6.3,86,0.00,,,0.00,WeatherCatV1.23B16,2013-11-22 12:01:00,
2013-11-22 03:06:00,22.6,19.0,29.07,South,180,0.0,0.0,86,0.00,,,0.00,WeatherCatV1.23B16,2013-11-22 12:06:00,
2013-11-22 03:11:00,22.8,19.5,29.07,NW,315,0.0,0.0,87,0.00,,,0.00,WeatherCatV1.23B16,2013-11-22 12:11:00,
2013-11-22 03:16:00,23.7,20.4,29.07,WNW,292,0.2,0.2,87,0.00,,,0.00,WeatherCatV1.23B16,2013-11-22 12:16:00,
2013-11-22 03:21:00,24.8,21.7,29.07,NW,315,0.0,0.0,88,0.00,,,0.00,WeatherCatV1.23B16,2013-11-22 12:21:00,
2013-11-22 03:26:00,26.1,23.0,29.07,North,0,0.0,0.0,88,0.00,,,0.00,WeatherCatV1.23B16,2013-11-22 12:26:00,
2013-11-22 03:31:00,26.4,23.3,29.08,NW,315,7.4,7.4,88,0.00,,,0.00,WeatherCatV1.23B16,2013-11-22 12:31:00,
2013-11-22 03:36:00,26.4,23.3,29.07,West,270,0.0,0.0,88,0.00,,,0.00,WeatherCatV1.23B16,2013-11-22 12:36:00,
2013-11-22 03:41:00,25.0,21.1,29.07,SW,225,0.0,0.0,85,0.00,,,0.00,WeatherCatV1.23B16,2013-11-22 12:41:00,
2013-11-22 03:46:00,23.9,19.8,29.08,West,270,0.0,0.0,84,0.00,,,0.00,WeatherCatV1.23B16,2013-11-22 12:46:00,
2013-11-22 03:51:00,23.2,19.0,29.08,SW,225,0.7,0.7,84,0.00,,,0.00,WeatherCatV1.23B16,2013-11-22 12:51:00,
2013-11-22 03:56:00,21.7,17.1,29.08,West,270,0.0,0.0,82,0.00,,,0.00,WeatherCatV1.23B16,2013-11-22 12:56:00,
2013-11-22 04:01:00,21.7,17.1,29.08,SSE,157,3.8,3.8,82,0.00,,,0.00,WeatherCatV1.23B16,2013-11-22 13:01:00,
2013-11-22 04:06:00,19.9,15.3,29.09,SW,225,6.0,6.0,82,0.00,,,0.00,WeatherCatV1.23B16,2013-11-22 13:06:00,
2013-11-22 04:11:00,19.2,14.5,29.09,NW,315,7.6,7.6,82,0.00,,,0.00,WeatherCatV1.23B16,2013-11-22 13:11:00,
2013-11-22 04:16:00,18.7,14.3,29.09,WSW,247,6.7,7.6,83,0.00,,,0.00,WeatherCatV1.23B16,2013-11-22 13:16:00,
2013-11-22 04:21:00,18.1,13.5,29.10,WSW,247,6.0,6.0,82,0.00,,,0.00,WeatherCatV1.23B16,2013-11-22 13:21:00,
2013-11-22 04:26:00,17.8,13.4,29.10,WSW,247,5.4,7.2,83,0.00,,,0.00,WeatherCatV1.23B16,2013-11-22 13:26:00,
2013-11-22 04:31:00,17.4,13.0,29.10,West,270,2.7,8.3,83,0.00,,,0.00,WeatherCatV1.23B16,2013-11-22 13:31:00,
2013-11-22 04:36:00,17.4,13.3,29.11,WSW,247,3.8,3.8,84,0.00,,,0.00,WeatherCatV1.23B16,2013-11-22 13:36:00,
2013-11-22 04:41:00,17.2,13.1,29.11,SSE,157,0.0,0.0,84,0.00,,,0.00,WeatherCatV1.23B16,2013-11-22 13:41:00,
2013-11-22 04:46:00,17.2,13.1,29.11,West,270,0.0,6.5,84,0.00,,,0.00,WeatherCatV1.23B16,2013-11-22 13:46:00,
2013-11-22 04:51:00,17.2,13.1,29.12,West,270,0.0,0.0,84,0.00,,,0.00,WeatherCatV1.23B16,2013-11-22 13:51:00,
2013-11-22 04:56:00,17.2,13.1,29.12,SW,225,6.9,6.9,84,0.00,,,0.00,WeatherCatV1.23B16,2013-11-22 13:56:00,
2013-11-22 05:01:00,17.2,13.4,29.12,West,270,4.7,6.9,85,0.00,,,0.00,WeatherCatV1.23B16,2013-11-22 14:01:00,
2013-11-22 05:06:00,17.2,13.4,29.12,West,270,0.0,0.0,85,0.00,,,0.00,WeatherCatV1.23B16,2013-11-22 14:06:00,
2013-11-22 05:11:00,16.9,13.1,29.12,South,180,0.0,0.0,85,0.00,,,0.00,WeatherCatV1.23B16,2013-11-22 14:11:00,
2013-11-22 05:16:00,16.9,13.1,29.12,West,270,0.0,0.0,85,0.00,,,0.00,WeatherCatV1.23B16,2013-11-22 14:16:00,
2013-11-22 05:21:00,16.9,13.1,29.13,West,270,0.0,0.0,85,0.00,,,0.00,WeatherCatV1.23B16,2013-11-22 14:21:00,
2013-11-22 05:26:00,16.9,13.1,29.12,West,270,0.0,0.0,85,0.00,,,0.00,WeatherCatV1.23B16,2013-11-22 14:26:00,
2013-11-22 05:31:00,16.9,13.1,29.14,West,270,0.0,0.0,85,0.00,,,0.00,WeatherCatV1.23B16,2013-11-22 14:31:00,
2013-11-22 05:36:00,16.9,13.1,29.12,West,270,0.0,0.0,85,0.00,,,0.00,WeatherCatV1.23B16,2013-11-22 14:36:00,
2013-11-22 05:41:00,17.2,13.6,29.13,West,270,0.0,0.0,86,0.00,,,0.00,WeatherCatV1.23B16,2013-11-22 14:41:00,
2013-11-22 05:46:00,17.2,13.6,29.12,West,270,0.0,0.0,86,0.00,,,0.00,WeatherCatV1.23B16,2013-11-22 14:46:00,
2013-11-22 05:51:00,17.4,13.8,29.13,SSW,202,0.0,0.0,86,0.00,,,0.00,WeatherCatV1.23B16,2013-11-22 14:51:00,
2013-11-22 05:56:00,17.4,13.8,29.12,West,270,0.0,0.0,86,0.00,,,0.00,WeatherCatV1.23B16,2013-11-22 14:56:00,
2013-11-22 06:01:00,17.4,13.8,29.12,WSW,247,0.0,0.0,86,0.00,,,0.00,WeatherCatV1.23B16,2013-11-22 15:01:00,
2013-11-22 06:06:00,17.8,14.2,29.13,WSW,247,0.0,0.0,86,0.00,,,0.00,WeatherCatV1.23B16,2013-11-22 15:06:00,
2013-11-22 06:11:00,17.8,14.2,29.13,WSW,247,0.0,0.0,86,0.00,,,0.00,WeatherCatV1.23B16,2013-11-22 15:11:00,
2013-11-22 06:16:00,17.8,13.9,29.13,SSE,157,0.0,0.0,85,0.00,,,0.00,WeatherCatV1.23B16,2013-11-22 15:16:00,
2013-11-22 06:21:00,17.8,13.9,29.13,SSE,157,0.0,0.0,85,0.00,,,0.00,WeatherCatV1.23B16,2013-11-22 15:21:00,
2013-11-22 06:26:00,17.8,13.9,29.13,SSE,157,0.0,0.0,85,0.00,,,0.00,WeatherCatV1.23B16,2013-11-22 15:26:00,
2013-11-22 06:31:00,17.8,13.9,29.13,SSE,157,0.0,0.0,85,0.00,,,0.00,WeatherCatV1.23B16,2013-11-22 15:31:00,
2013-11-22 06:36:00,17.8,13.9,29.13,SSE,157,0.0,0.0,85,0.00,,,0.00,WeatherCatV1.23B16,2013-11-22 15:36:00,
2013-11-22 06:41:00,18.0,14.1,29.12,SSE,157,0.0,0.0,85,0.00,,,0.00,WeatherCatV1.23B16,2013-11-22 15:41:00,
2013-11-22 06:46:00,18.1,14.3,29.13,SSE,157,0.0,0.0,85,0.00,,,0.00,WeatherCatV1.23B16,2013-11-22 15:46:00,
2013-11-22 06:51:00,18.1,14.3,29.12,SSE,157,0.0,0.0,85,0.00,,,0.00,WeatherCatV1.23B16,2013-11-22 15:51:00,
2013-11-22 06:56:00,18.1,14.3,29.12,SE,135,0.0,0.0,85,0.00,,,0.00,WeatherCatV1.23B16,2013-11-22 15:56:00,
2013-11-22 07:01:00,18.3,14.4,29.12,ENE,67,0.0,0.0,85,0.00,,,0.00,WeatherCatV1.23B16,2013-11-22 16:01:00,
2013-11-22 07:06:00,18.3,14.4,29.12,East,90,0.0,0.0,85,0.00,,,0.00,WeatherCatV1.23B16,2013-11-22 16:06:00,
2013-11-22 07:11:00,18.3,14.4,29.11,East,90,0.0,0.0,85,0.00,,,0.00,WeatherCatV1.23B16,2013-11-22 16:11:00,
2013-11-22 07:16:00,18.3,14.4,29.11,ESE,112,0.0,0.0,85,0.00,,,0.00,WeatherCatV1.23B16,2013-11-22 16:16:00,
2013-11-22 07:21:00,18.5,14.6,29.10,ENE,67,0.0,0.0,85,0.00,,,0.00,WeatherCatV1.23B16,2013-11-22 16:21:00,
2013-11-22 07:26:00,18.7,14.8,29.10,SE,135,0.0,0.0,85,0.00,,,0.00,WeatherCatV1.23B16,2013-11-22 16:26:00,
2013-11-22 07:31:00,18.9,15.3,29.10,ESE,112,0.0,0.0,86,0.00,,,0.00,WeatherCatV1.23B16,2013-11-22 16:31:00,
2013-11-22 07:36:00,19.2,15.6,29.10,WNW,292,0.7,0.7,86,0.00,,,0.00,WeatherCatV1.23B16,2013-11-22 16:36:00,
2013-11-22 07:41:00,19.4,15.8,29.11,NNE,22,0.0,0.0,86,0.00,,,0.00,WeatherCatV1.23B16,2013-11-22 16:41:00,
2013-11-22 07:46:00,19.6,16.0,29.10,East,90,0.0,0.0,86,0.00,,,0.00,WeatherCatV1.23B16,2013-11-22 16:46:00,
2013-11-22 07:51:00,20.3,17.0,29.10,ESE,112,0.0,0.0,87,0.00,,,0.00,WeatherCatV1.23B16,2013-11-22 16:51:00,
2013-11-22 07:56:00,20.8,17.5,29.10,ESE,112,0.0,0.0,87,0.00,,,0.00,WeatherCatV1.23B16,2013-11-22 16:56:00,
2013-11-22 08:01:00,21.0,17.7,29.09,North,0,0.0,0.0,87,0.00,,,0.00,WeatherCatV1.23B16,2013-11-22 17:01:00,
2013-11-22 08:06:00,21.4,18.0,29.08,East,90,0.0,0.0,87,0.00,,,0.00,WeatherCatV1.23B16,2013-11-22 17:06:00,
2013-11-22 08:11:00,21.9,18.9,29.08,NW,315,0.0,6.7,88,0.00,,,0.00,WeatherCatV1.23B16,2013-11-22 17:11:00,
2013-11-22 08:16:00,23.2,20.1,29.09,NW,315,0.0,0.0,88,0.00,,,0.00,WeatherCatV1.23B16,2013-11-22 17:16:00,
2013-11-22 08:21:00,23.0,19.9,29.09,NNW,337,0.9,0.9,88,0.00,,,0.00,WeatherCatV1.23B16,2013-11-22 17:21:00,
2013-11-22 08:26:00,23.2,20.1,29.09,SSE,157,0.0,0.0,88,0.00,,,0.00,WeatherCatV1.23B16,2013-11-22 17:26:00,
2013-11-22 08:31:00,23.4,20.0,29.09,South,180,0.0,0.0,87,0.00,,,0.00,WeatherCatV1.23B16,2013-11-22 17:31:00,
2013-11-22 08:36:00,23.2,19.9,29.09,South,180,0.0,0.0,87,0.00,,,0.00,WeatherCatV1.23B16,2013-11-22 17:36:00,
2013-11-22 08:41:00,22.3,18.4,29.09,SSE,157,0.0,0.0,85,0.00,,,0.00,WeatherCatV1.23B16,2013-11-22 17:41:00,
2013-11-22 08:46:00,21.9,18.0,29.09,NW,315,3.4,3.4,85,0.00,,,0.00,WeatherCatV1.23B16,2013-11-22 17:46:00,
2013-11-22 08:51:00,21.7,17.9,29.10,SE,135,0.0,0.0,85,0.00,,,0.00,WeatherCatV1.23B16,2013-11-22 17:51:00,
2013-11-22 08:56:00,21.7,18.1,29.09,NW,315,0.0,0.0,86,0.00,,,0.00,WeatherCatV1.23B16,2013-11-22 17:56:00,
2013-11-22 09:01:00,21.7,18.1,29.09,NW,315,0.0,0.0,86,0.00,,,0.00,WeatherCatV1.23B16,2013-11-22 18:01:00,
2013-11-22 09:06:00,21.9,18.3,29.09,NW,315,0.0,0.0,86,0.00,,,0.00,WeatherCatV1.23B16,2013-11-22 18:06:00,
2013-11-22 09:11:00,22.3,18.7,29.09,NE,45,0.0,4.2,86,0.00,,,0.00,WeatherCatV1.23B16,2013-11-22 18:11:00,
2013-11-22 09:16:00,22.8,19.5,29.09,SE,135,0.0,0.0,87,0.00,,,0.00,WeatherCatV1.23B16,2013-11-22 18:16:00,
2013-11-22 09:21:00,22.8,19.5,29.08,SE,135,0.0,0.0,87,0.00,,,0.00,WeatherCatV1.23B16,2013-11-22 18:21:00,
2013-11-22 09:26:00,23.0,19.7,29.08,SE,135,0.0,0.0,87,0.00,,,0.00,WeatherCatV1.23B16,2013-11-22 18:26:00,
2013-11-22 09:31:00,23.2,19.9,29.08,ENE,67,0.0,0.0,87,0.00,,,0.00,WeatherCatV1.23B16,2013-11-22 18:31:00,
2013-11-22 09:36:00,23.5,20.2,29.08,NNE,22,0.0,0.0,87,0.00,,,0.00,WeatherCatV1.23B16,2013-11-22 18:36:00,
2013-11-22 09:41:00,25.0,21.9,29.08,NNW,337,0.0,0.0,88,0.00,,,0.00,WeatherCatV1.23B16,2013-11-22 18:41:00,
2013-11-22 09:46:00,25.2,22.4,29.08,NNW,337,0.0,0.0,89,0.00,,,0.00,WeatherCatV1.23B16,2013-11-22 18:46:00,
2013-11-22 09:51:00,26.4,23.6,29.08,North,0,0.0,0.0,89,0.00,,,0.00,WeatherCatV1.23B16,2013-11-22 18:51:00,
2013-11-22 09:56:00,27.7,25.2,29.08,NNE,22,0.0,0.0,90,0.00,,,0.00,WeatherCatV1.23B16,2013-11-22 18:56:00,
2013-11-22 10:01:00,29.1,26.6,29.08,NNE,22,0.0,0.0,90,0.00,,,0.00,WeatherCatV1.23B16,2013-11-22 19:01:00,
2013-11-22 10:06:00,29.8,27.3,29.07,NNE,22,0.0,0.0,90,0.00,,,0.00,WeatherCatV1.23B16,2013-11-22 19:06:00,
2013-11-22 10:11:00,30.4,27.9,29.07,NNE,22,0.0,0.0,90,0.00,,,0.00,WeatherCatV1.23B16,2013-11-22 19:11:00,
2013-11-22 10:16:00,31.1,28.6,29.07,NE,45,0.0,0.0,90,0.00,,,0.00,WeatherCatV1.23B16,2013-11-22 19:16:00,
2013-11-22 10:21:00,31.1,28.6,29.08,East,90,0.0,0.0,90,0.00,,,0.00,WeatherCatV1.23B16,2013-11-22 19:21:00,
2013-11-22 10:26:00,29.7,26.9,29.07,East,90,0.0,0.0,89,0.00,,,0.00,WeatherCatV1.23B16,2013-11-22 19:26:00,
2013-11-22 10:31:00,28.8,26.0,29.08,East,90,0.0,0.0,89,0.00,,,0.00,WeatherCatV1.23B16,2013-11-22 19:31:00,
2013-11-22 10:36:00,28.0,24.9,29.08,East,90,0.0,0.0,88,0.00,,,0.00,WeatherCatV1.23B16,2013-11-22 19:36:00,
2013-11-22 10:41:00,27.1,23.8,29.08,East,90,0.0,0.0,87,0.00,,,0.00,WeatherCatV1.23B16,2013-11-22 19:41:00,
2013-11-22 10:46:00,26.8,23.4,29.08,East,90,0.0,0.0,87,0.00,,,0.00,WeatherCatV1.23B16,2013-11-22 19:46:00,
2013-11-22 10:51:00,26.4,23.0,29.08,East,90,0.0,0.0,87,0.00,,,0.00,WeatherCatV1.23B16,2013-11-22 19:51:00,
2013-11-22 10:56:00,26.4,23.3,29.08,East,90,0.0,0.0,88,0.00,,,0.00,WeatherCatV1.23B16,2013-11-22 19:56:00,
2013-11-22 11:01:00,26.4,23.3,29.07,East,90,0.0,0.0,88,0.00,,,0.00,WeatherCatV1.23B16,2013-11-22 20:01:00,
2013-11-22 11:06:00,26.8,23.7,29.07,East,90,0.0,0.0,88,0.00,,,0.00,WeatherCatV1.23B16,2013-11-22 20:06:00,
2013-11-22 11:11:00,27.0,23.9,29.07,East,90,0.0,0.0,88,0.00,,,0.00,WeatherCatV1.23B16,2013-11-22 20:11:00,
2013-11-22 11:16:00,27.1,24.0,29.07,East,90,0.0,0.0,88,0.00,,,0.00,WeatherCatV1.23B16,2013-11-22 20:16:00,
2013-11-22 11:21:00,27.1,24.0,29.07,East,90,0.0,0.0,88,0.00,,,0.00,WeatherCatV1.23B16,2013-11-22 20:21:00,
2013-11-22 11:26:00,27.7,24.9,29.06,East,90,0.0,0.0,89,0.00,,,0.00,WeatherCatV1.23B16,2013-11-22 20:26:00,
2013-11-22 11:31:00,28.0,25.2,29.07,East,90,0.0,0.0,89,0.00,,,0.00,WeatherCatV1.23B16,2013-11-22 20:31:00,
2013-11-22 11:36:00,28.0,25.2,29.07,East,90,0.0,0.0,89,0.00,,,0.00,WeatherCatV1.23B16,2013-11-22 20:36:00,
2013-11-22 11:41:00,27.9,24.8,29.07,East,90,0.0,0.0,88,0.00,,,0.00,WeatherCatV1.23B16,2013-11-22 20:41:00,
2013-11-22 11:46:00,28.0,24.9,29.06,East,90,0.0,0.0,88,0.00,,,0.00,WeatherCatV1.23B16,2013-11-22 20:46:00,
2013-11-22 11:51:00,28.2,25.4,29.06,East,90,0.0,0.0,89,0.00,,,0.00,WeatherCatV1.23B16,2013-11-22 20:51:00,
2013-11-22 11:56:00,28.9,26.1,29.06,East,90,0.0,0.0,89,0.00,,,0.00,WeatherCatV1.23B16,2013-11-22 20:56:00,
2013-11-22 12:01:00,29.7,26.9,29.06,East,90,0.0,0.0,89,0.00,,,0.00,WeatherCatV1.23B16,2013-11-22 21:01:00,
2013-11-22 12:06:00,30.9,28.4,29.06,East,90,0.0,0.0,90,0.00,,,0.00,WeatherCatV1.23B16,2013-11-22 21:06:00,
2013-11-22 12:11:00,32.5,30.2,29.06,East,90,0.0,0.0,91,0.00,,,0.00,WeatherCatV1.23B16,2013-11-22 21:11:00,
2013-11-22 12:16:00,33.6,31.2,29.06,East,90,0.0,0.0,91,0.00,,,0.00,WeatherCatV1.23B16,2013-11-22 21:16:00,
2013-11-22 12:21:00,34.0,31.5,29.06,NE,45,0.0,0.0,91,0.00,,,0.00,WeatherCatV1.23B16,2013-11-22 21:21:00,
2013-11-22 12:26:00,35.2,32.8,29.05,NE,45,0.0,0.0,91,0.00,,,0.00,WeatherCatV1.23B16,2013-11-22 21:26:00,
2013-11-22 12:31:00,35.6,33.2,29.06,ENE,67,0.0,0.0,91,0.00,,,0.00,WeatherCatV1.23B16,2013-11-22 21:31:00,
2013-11-22 12:36:00,36.1,33.7,29.06,SE,135,0.0,0.0,91,0.00,,,0.00,WeatherCatV1.23B16,2013-11-22 21:36:00,
2013-11-22 12:41:00,36.5,34.1,29.06,NNW,337,0.0,0.0,91,0.00,,,0.00,WeatherCatV1.23B16,2013-11-22 21:41:00,
2013-11-22 12:46:00,36.7,34.2,29.07,West,270,0.0,0.0,91,0.02,,,0.02,WeatherCatV1.23B16,2013-11-22 21:46:00,
2013-11-22 12:51:00,36.7,34.0,29.07,West,270,0.0,0.0,90,0.02,,,0.02,WeatherCatV1.23B16,2013-11-22 21:51:00,
2013-11-22 12:56:00,36.5,33.5,29.07,NNW,337,0.0,0.0,89,0.02,,,0.02,WeatherCatV1.23B16,2013-11-22 21:56:00,
2013-11-22 13:01:00,36.5,33.5,29.07,NNW,337,0.0,0.0,89,0.02,,,0.02,WeatherCatV1.23B16,2013-11-22 22:01:00,
2013-11-22 13:06:00,36.5,33.5,29.06,South,180,0.0,0.0,89,0.02,,,0.02,WeatherCatV1.23B16,2013-11-22 22:06:00,
2013-11-22 13:11:00,36.1,32.9,29.08,SSE,157,0.0,0.0,88,0.02,,,0.02,WeatherCatV1.23B16,2013-11-22 22:11:00,
2013-11-22 13:16:00,35.2,31.4,29.08,WSW,247,5.8,5.8,86,0.02,,,0.02,WeatherCatV1.23B16,2013-11-22 22:16:00,
2013-11-22 13:21:00,34.0,29.8,29.09,WSW,247,5.8,5.8,85,0.02,,,0.02,WeatherCatV1.23B16,2013-11-22 22:21:00,
2013-11-22 13:26:00,32.5,28.2,29.09,WSW,247,0.0,0.0,84,0.02,,,0.02,WeatherCatV1.23B16,2013-11-22 22:26:00,
2013-11-22 13:31:00,31.8,27.6,29.11,WSW,247,0.0,0.0,84,0.02,,,0.02,WeatherCatV1.23B16,2013-11-22 22:31:00,
2013-11-22 13:36:00,31.3,27.3,29.11,WSW,247,2.0,2.0,85,0.02,,,0.02,WeatherCatV1.23B16,2013-11-22 22:36:00,
2013-11-22 13:41:00,30.9,27.2,29.11,WSW,247,4.0,4.0,86,0.00,,,0.02,WeatherCatV1.23B16,2013-11-22 22:41:00,
2013-11-22 13:46:00,30.7,27.1,29.12,WSW,247,4.2,4.2,86,0.00,,,0.02,WeatherCatV1.23B16,2013-11-22 22:46:00,
2013-11-22 13:51:00,30.4,26.7,29.12,WSW,247,5.4,5.4,86,0.00,,,0.02,WeatherCatV1.23B16,2013-11-22 22:51:00,
2013-11-22 13:56:00,29.3,25.6,29.12,WSW,247,0.0,10.3,86,0.00,,,0.02,WeatherCatV1.23B16,2013-11-22 22:56:00,
2013-11-22 14:01:00,29.1,25.7,29.13,WSW,247,0.0,0.0,87,0.00,,,0.02,WeatherCatV1.23B16,2013-11-22 23:01:00,
2013-11-22 14:06:00,29.1,25.7,29.14,WSW,247,0.0,0.0,87,0.00,,,0.02,WeatherCatV1.23B16,2013-11-22 23:06:00,
2013-11-22 14:11:00,29.1,26.0,29.15,WSW,247,0.0,0.0,88,0.00,,,0.02,WeatherCatV1.23B16,2013-11-22 23:11:00,
2013-11-22 14:16:00,29.3,26.2,29.16,WSW,247,0.0,0.0,88,0.00,,,0.02,WeatherCatV1.23B16,2013-11-22 23:16:00,
2013-11-22 14:21:00,29.1,26.0,29.16,WSW,247,0.0,0.0,88,0.00,,,0.02,WeatherCatV1.23B16,2013-11-22 23:21:00,
2013-11-22 14:26:00,29.1,26.0,29.16,WSW,247,0.0,0.0,88,0.00,,,0.02,WeatherCatV1.23B16,2013-11-22 23:26:00,
2013-11-22 14:31:00,29.1,26.0,29.17,WSW,247,0.0,0.0,88,0.00,,,0.02,WeatherCatV1.23B16,2013-11-22 23:31:00,
2013-11-22 14:36:00,29.3,26.2,29.17,WSW,247,0.0,0.0,88,0.00,,,0.02,WeatherCatV1.23B16,2013-11-22 23:36:00,
2013-11-22 14:41:00,29.5,26.4,29.17,WSW,247,0.0,0.0,88,0.00,,,0.02,WeatherCatV1.23B16,2013-11-22 23:41:00,
2013-11-22 14:46:00,29.7,26.6,29.18,WSW,247,0.0,0.0,88,0.00,,,0.02,WeatherCatV1.23B16,2013-11-22 23:46:00,
2013-11-22 14:51:00,29.8,26.7,29.18,WSW,247,3.6,3.6,88,0.00,,,0.02,WeatherCatV1.23B16,2013-11-22 23:51:00,
2013-11-22 14:56:00,29.8,26.7,29.19,WSW,247,0.0,0.0,88,0.00,,,0.02,WeatherCatV1.23B16,2013-11-22 23:56:00,
2013-11-22 15:01:00,29.8,26.7,29.19,WSW,247,0.0,0.0,88,0.00,,,0.02,WeatherCatV1.23B16,2013-11-23 00:01:00,
2013-11-22 15:06:00,30.0,26.9,29.18,WSW,247,0.0,0.0,88,0.00,,,0.02,WeatherCatV1.23B16,2013-11-23 00:06:00,
2013-11-22 15:11:00,29.7,26.6,29.18,WSW,247,0.0,0.0,88,0.00,,,0.02,WeatherCatV1.23B16,2013-11-23 00:11:00,
2013-11-22 15:16:00,29.5,26.4,29.19,WSW,247,0.0,0.0,88,0.00,,,0.02,WeatherCatV1.23B16,2013-11-23 00:16:00,
2013-11-22 15:21:00,29.3,26.2,29.19,WSW,247,0.0,0.0,88,0.00,,,0.02,WeatherCatV1.23B16,2013-11-23 00:21:00,
2013-11-22 15:26:00,29.3,26.2,29.20,WSW,247,0.0,0.0,88,0.00,,,0.02,WeatherCatV1.23B16,2013-11-23 00:26:00,
2013-11-22 15:31:00,29.3,26.2,29.20,WSW,247,0.0,0.0,88,0.00,,,0.02,WeatherCatV1.23B16,2013-11-23 00:31:00,
2013-11-22 15:36:00,29.1,26.0,29.21,WSW,247,0.0,0.0,88,0.00,,,0.02,WeatherCatV1.23B16,2013-11-23 00:36:00,
2013-11-22 15:41:00,29.1,26.0,29.21,WSW,247,0.0,6.9,88,0.00,,,0.02,WeatherCatV1.23B16,2013-11-23 00:41:00,
2013-11-22 15:46:00,29.1,26.0,29.21,WSW,247,3.4,3.4,88,0.00,,,0.02,WeatherCatV1.23B16,2013-11-23 00:46:00,
2013-11-22 15:51:00,29.7,26.6,29.22,WSW,247,0.0,0.0,88,0.00,,,0.02,WeatherCatV1.23B16,2013-11-23 00:51:00,
2013-11-22 15:56:00,30.0,26.4,29.22,WSW,247,4.9,6.3,86,0.00,,,0.02,WeatherCatV1.23B16,2013-11-23 00:56:00,
2013-11-22 16:01:00,30.6,26.6,29.23,WSW,247,5.1,5.1,85,0.00,,,0.02,WeatherCatV1.23B16,2013-11-23 01:01:00,
2013-11-22 16:06:00,30.6,26.3,29.23,WSW,247,10.1,10.1,84,0.00,,,0.02,WeatherCatV1.23B16,2013-11-23 01:06:00,
2013-11-22 16:11:00,30.7,26.2,29.23,WSW,247,9.2,9.2,83,0.00,,,0.02,WeatherCatV1.23B16,2013-11-23 01:11:00,
2013-11-22 16:16:00,30.6,25.5,29.24,WSW,247,6.9,6.9,81,0.00,,,0.02,WeatherCatV1.23B16,2013-11-23 01:16:00,
2013-11-22 16:21:00,30.4,25.3,29.24,WSW,247,4.2,4.2,81,0.00,,,0.02,WeatherCatV1.23B16,2013-11-23 01:21:00,
2013-11-22 16:26:00,30.2,24.8,29.24,WSW,247,13.6,16.1,80,0.00,,,0.02,WeatherCatV1.23B16,2013-11-23 01:26:00,
2013-11-22 16:31:00,30.0,24.6,29.25,WSW,247,6.0,8.1,80,0.00,,,0.02,WeatherCatV1.23B16,2013-11-23 01:31:00,
2013-11-22 16:36:00,29.8,24.1,29.25,WSW,247,11.9,11.9,79,0.00,,,0.02,WeatherCatV1.23B16,2013-11-23 01:36:00,
2013-11-22 16:41:00,29.5,24.1,29.26,WSW,247,10.5,10.5,80,0.00,,,0.02,WeatherCatV1.23B16,2013-11-23 01:41:00,
2013-11-22 16:46:00,29.3,24.2,29.26,WSW,247,5.1,5.1,81,0.00,,,0.02,WeatherCatV1.23B16,2013-11-23 01:46:00,
2013-11-22 16:51:00,29.1,24.0,29.26,WSW,247,10.5,10.5,81,0.00,,,0.02,WeatherCatV1.23B16,2013-11-23 01:51:00,
2013-11-22 16:56:00,28.9,24.1,29.27,WSW,247,12.5,12.5,82,0.00,,,0.02,WeatherCatV1.23B16,2013-11-23 01:56:00,
2013-11-22 17:01:00,28.8,23.9,29.27,WSW,247,8.1,8.1,82,0.00,,,0.02,WeatherCatV1.23B16,2013-11-23 02:01:00,
2013-11-22 17:06:00,28.8,23.9,29.27,WSW,247,4.2,4.2,82,0.00,,,0.02,WeatherCatV1.23B16,2013-11-23 02:06:00,
2013-11-22 17:11:00,28.4,23.6,29.28,WSW,247,5.6,18.1,82,0.00,,,0.02,WeatherCatV1.23B16,2013-11-23 02:11:00,
2013-11-22 17:16:00,28.2,23.7,29.28,WSW,247,5.4,5.4,83,0.00,,,0.02,WeatherCatV1.23B16,2013-11-23 02:16:00,
2013-11-22 17:21:00,28.0,23.5,29.28,WSW,247,14.1,14.1,83,0.00,,,0.02,WeatherCatV1.23B16,2013-11-23 02:21:00,
2013-11-22 17:26:00,27.5,23.2,29.29,WSW,247,11.2,11.2,84,0.00,,,0.02,WeatherCatV1.23B16,2013-11-23 02:26:00,
2013-11-22 17:31:00,27.1,22.9,29.29,WSW,247,5.6,5.6,84,0.00,,,0.02,WeatherCatV1.23B16,2013-11-23 02:31:00,
2013-11-22 17:36:00,27.0,22.7,29.29,WSW,247,4.7,4.7,84,0.00,,,0.02,WeatherCatV1.23B16,2013-11-23 02:36:00,
2013-11-22 17:41:00,26.6,22.6,29.30,WSW,247,2.2,6.0,85,0.00,,,0.02,WeatherCatV1.23B16,2013-11-23 02:41:00,
2013-11-22 17:46:00,26.4,22.5,29.31,WSW,247,12.3,12.3,85,0.00,,,0.02,WeatherCatV1.23B16,2013-11-23 02:46:00,
2013-11-22 17:51:00,26.2,22.6,29.31,WSW,247,2.9,2.9,86,0.00,,,0.02,WeatherCatV1.23B16,2013-11-23 02:51:00,
2013-11-22 17:56:00,26.1,22.4,29.31,WSW,247,2.7,5.8,86,0.00,,,0.02,WeatherCatV1.23B16,2013-11-23 02:56:00,
2013-11-22 18:01:00,25.9,22.5,29.31,WSW,247,2.2,2.2,87,0.00,,,0.02,WeatherCatV1.23B16,2013-11-23 03:01:00,
2013-11-22 18:06:00,25.7,22.3,29.32,WSW,247,6.9,6.9,87,0.00,,,0.02,WeatherCatV1.23B16,2013-11-23 03:06:00,
2013-11-22 18:11:00,25.5,22.1,29.32,WSW,247,16.1,16.1,87,0.00,,,0.02,WeatherCatV1.23B16,2013-11-23 03:11:00,
2013-11-22 18:16:00,25.5,22.1,29.32,WSW,247,2.5,2.5,87,0.00,,,0.02,WeatherCatV1.23B16,2013-11-23 03:16:00,
2013-11-22 18:21:00,25.3,22.3,29.33,WSW,247,6.5,6.5,88,0.00,,,0.02,WeatherCatV1.23B16,2013-11-23 03:21:00,
2013-11-22 18:26:00,25.2,22.1,29.33,WSW,247,4.5,6.5,88,0.00,,,0.02,WeatherCatV1.23B16,2013-11-23 03:26:00,
2013-11-22 18:31:00,25.0,21.6,29.33,WSW,247,13.6,13.6,87,0.00,,,0.02,WeatherCatV1.23B16,2013-11-23 03:31:00,
2013-11-22 18:36:00,25.0,21.6,29.34,WSW,247,0.0,0.0,87,0.00,,,0.02,WeatherCatV1.23B16,2013-11-23 03:36:00,
2013-11-22 18:41:00,24.6,21.6,29.34,WSW,247,0.0,0.9,88,0.00,,,0.02,WeatherCatV1.23B16,2013-11-23 03:41:00,
2013-11-22 18:46:00,24.6,21.6,29.34,WSW,247,4.5,4.5,88,0.00,,,0.02,WeatherCatV1.23B16,2013-11-23 03:46:00,
2013-11-22 18:51:00,24.6,21.6,29.34,WSW,247,4.5,4.5,88,0.00,,,0.02,WeatherCatV1.23B16,2013-11-23 03:51:00,
2013-11-22 18:56:00,24.6,21.6,29.35,WSW,247,0.0,0.0,88,0.00,,,0.02,WeatherCatV1.23B16,2013-11-23 03:56:00,
2013-11-22 19:01:00,24.6,21.6,29.35,WSW,247,0.0,0.0,88,0.00,,,0.02,WeatherCatV1.23B16,2013-11-23 04:01:00,
2013-11-22 19:06:00,24.6,21.6,29.36,WSW,247,0.0,0.0,88,0.00,,,0.02,WeatherCatV1.23B16,2013-11-23 04:06:00,
2013-11-22 19:11:00,24.6,21.6,29.36,WSW,247,0.0,0.0,88,0.00,,,0.02,WeatherCatV1.23B16,2013-11-23 04:11:00,
2013-11-22 19:16:00,24.6,21.6,29.36,WSW,247,2.0,2.0,88,0.00,,,0.02,WeatherCatV1.23B16,2013-11-23 04:16:00,
2013-11-22 19:21:00,24.6,21.6,29.37,WSW,247,0.0,0.0,88,0.00,,,0.02,WeatherCatV1.23B16,2013-11-23 04:21:00,
2013-11-22 19:26:00,24.6,21.6,29.37,WSW,247,0.0,0.0,88,0.00,,,0.02,WeatherCatV1.23B16,2013-11-23 04:26:00,
2013-11-22 19:31:00,24.6,21.3,29.38,WSW,247,0.0,0.0,87,0.00,,,0.02,WeatherCatV1.23B16,2013-11-23 04:31:00,
2013-11-22 19:36:00,24.4,21.1,29.38,WSW,247,0.0,0.0,87,0.00,,,0.02,WeatherCatV1.23B16,2013-11-23 04:36:00,
2013-11-22 19:41:00,24.4,20.8,29.38,WSW,247,0.0,0.0,86,0.00,,,0.02,WeatherCatV1.23B16,2013-11-23 04:41:00,
2013-11-22 19:46:00,24.1,20.5,29.38,WSW,247,4.5,4.5,86,0.00,,,0.02,WeatherCatV1.23B16,2013-11-23 04:46:00,
2013-11-22 19:51:00,24.1,20.5,29.39,WSW,247,0.4,0.4,86,0.00,,,0.02,WeatherCatV1.23B16,2013-11-23 04:51:00,
2013-11-22 19:56:00,24.1,20.2,29.39,WSW,247,10.5,10.5,85,0.00,,,0.02,WeatherCatV1.23B16,2013-11-23 04:56:00,
2013-11-22 20:01:00,23.9,20.0,29.40,WSW,247,0.0,0.0,85,0.00,,,0.02,WeatherCatV1.23B16,2013-11-23 05:01:00,
2013-11-22 20:06:00,23.9,20.0,29.39,WSW,247,0.0,0.0,85,0.00,,,0.02,WeatherCatV1.23B16,2013-11-23 05:06:00,
2013-11-22 20:11:00,23.9,19.5,29.39,WSW,247,0.0,1.8,83,0.00,,,0.02,WeatherCatV1.23B16,2013-11-23 05:11:00,
2013-11-22 20:16:00,23.9,19.5,29.40,WSW,247,0.0,0.0,83,0.00,,,0.02,WeatherCatV1.23B16,2013-11-23 05:16:00,
2013-11-22 20:21:00,23.9,19.0,29.41,WSW,247,0.0,0.0,81,0.00,,,0.02,WeatherCatV1.23B16,2013-11-23 05:21:00,
2013-11-22 20:26:00,24.1,18.9,29.41,WSW,247,6.5,6.5,80,0.00,,,0.02,WeatherCatV1.23B16,2013-11-23 05:26:00,
2013-11-22 20:31:00,24.1,18.5,29.41,WSW,247,0.0,0.0,79,0.00,,,0.02,WeatherCatV1.23B16,2013-11-23 05:31:00,
2013-11-22 20:36:00,24.4,18.6,29.42,WSW,247,4.7,4.7,78,0.00,,,0.02,WeatherCatV1.23B16,2013-11-23 05:36:00,
2013-11-22 20:41:00,24.4,17.9,29.42,WSW,247,0.0,0.0,76,0.00,,,0.02,WeatherCatV1.23B16,2013-11-23 05:41:00,
2013-11-22 20:46:00,24.4,17.6,29.42,WSW,247,0.7,0.7,75,0.00,,,0.02,WeatherCatV1.23B16,2013-11-23 05:46:00,
2013-11-22 20:51:00,24.4,17.3,29.42,WSW,247,0.0,0.0,74,0.00,,,0.02,WeatherCatV1.23B16,2013-11-23 05:51:00,
2013-11-22 20:56:00,24.6,17.1,29.43,WSW,247,0.0,0.4,73,0.00,,,0.02,WeatherCatV1.23B16,2013-11-23 05:56:00,
2013-11-22 21:01:00,24.6,16.8,29.43,WSW,247,0.0,0.0,72,0.00,,,0.02,WeatherCatV1.23B16,2013-11-23 06:01:00,
2013-11-22 21:06:00,24.6,16.8,29.43,WSW,247,2.7,2.7,72,0.00,,,0.02,WeatherCatV1.23B16,2013-11-23 06:06:00,
2013-11-22 21:11:00,24.6,16.2,29.43,WSW,247,0.9,0.9,70,0.00,,,0.02,WeatherCatV1.23B16,2013-11-23 06:11:00,
2013-11-22 21:16:00,24.6,16.2,29.43,WSW,247,0.7,0.7,70,0.00,,,0.02,WeatherCatV1.23B16,2013-11-23 06:16:00,
2013-11-22 21:21:00,24.6,16.2,29.43,WSW,247,0.0,0.0,70,0.00,,,0.02,WeatherCatV1.23B16,2013-11-23 06:21:00,
2013-11-22 21:26:00,24.6,16.5,29.44,WSW,247,0.0,0.0,71,0.00,,,0.02,WeatherCatV1.23B16,2013-11-23 06:26:00,
2013-11-22 21:31:00,24.6,16.8,29.44,WSW,247,0.0,0.0,72,0.00,,,0.02,WeatherCatV1.23B16,2013-11-23 06:31:00,
2013-11-22 21:36:00,24.6,16.8,29.44,WSW,247,0.0,0.0,72,0.00,,,0.02,WeatherCatV1.23B16,2013-11-23 06:36:00,
2013-11-22 21:41:00,24.4,16.6,29.45,WSW,247,0.0,0.0,72,0.00,,,0.02,WeatherCatV1.23B16,2013-11-23 06:41:00,
2013-11-22 21:46:00,24.4,17.0,29.45,WSW,247,0.0,0.0,73,0.00,,,0.02,WeatherCatV1.23B16,2013-11-23 06:46:00,
2013-11-22 21:51:00,24.4,17.0,29.45,WSW,247,0.0,0.0,73,0.00,,,0.02,WeatherCatV1.23B16,2013-11-23 06:51:00,
2013-11-22 21:56:00,24.4,17.3,29.45,WSW,247,0.0,0.0,74,0.00,,,0.02,WeatherCatV1.23B16,2013-11-23 06:56:00,
2013-11-22 22:01:00,24.1,17.0,29.45,WSW,247,0.0,0.0,74,0.00,,,0.02,WeatherCatV1.23B16,2013-11-23 07:01:00,
2013-11-22 22:06:00,24.1,17.3,29.45,WSW,247,0.0,0.0,75,0.00,,,0.02,WeatherCatV1.23B16,2013-11-23 07:06:00,
2013-11-22 22:11:00,23.9,17.4,29.45,WSW,247,0.0,0.0,76,0.00,,,0.02,WeatherCatV1.23B16,2013-11-23 07:11:00,
2013-11-22 22:16:00,23.9,17.7,29.45,WSW,247,0.0,0.0,77,0.00,,,0.02,WeatherCatV1.23B16,2013-11-23 07:16:00,
2013-11-22 22:21:00,23.9,17.7,29.45,WSW,247,0.0,0.0,77,0.00,,,0.02,WeatherCatV1.23B16,2013-11-23 07:21:00,
2013-11-22 22:26:00,23.9,17.7,29.45,WSW,247,0.0,0.0,77,0.00,,,0.02,WeatherCatV1.23B16,2013-11-23 07:26:00,
2013-11-22 22:31:00,23.9,17.7,29.45,WSW,247,0.0,0.0,77,0.00,,,0.02,WeatherCatV1.23B16,2013-11-23 07:31:00,
2013-11-22 22:36:00,23.9,17.4,29.46,WSW,247,0.0,0.0,76,0.00,,,0.02,WeatherCatV1.23B16,2013-11-23 07:36:00,
2013-11-22 22:41:00,23.9,17.7,29.46,WSW,247,0.0,0.0,77,0.00,,,0.02,WeatherCatV1.23B16,2013-11-23 07:41:00,
2013-11-22 22:46:00,23.9,18.0,29.46,WSW,247,0.0,0.0,78,0.00,,,0.02,WeatherCatV1.23B16,2013-11-23 07:46:00,
2013-11-22 22:51:00,23.7,17.9,29.45,WSW,247,0.0,0.0,78,0.00,,,0.02,WeatherCatV1.23B16,2013-11-23 07:51:00,
2013-11-22 22:56:00,23.5,18.0,29.46,WSW,247,0.0,0.0,79,0.00,,,0.02,WeatherCatV1.23B16,2013-11-23 07:56:00,
2013-11-22 23:01:00,23.5,18.0,29.45,WSW,247,0.0,0.0,79,0.00,,,0.02,WeatherCatV1.23B16,2013-11-23 08:01:00,
2013-11-22 23:06:00,23.4,18.1,29.45,WSW,247,0.0,0.0,80,0.00,,,0.02,WeatherCatV1.23B16,2013-11-23 08:06:00,
2013-11-22 23:11:00,23.2,18.0,29.45,WSW,247,0.0,2.9,80,0.00,,,0.02,WeatherCatV1.23B16,2013-11-23 08:11:00,
2013-11-22 23:16:00,23.2,18.2,29.45,WSW,247,0.0,0.0,81,0.00,,,0.02,WeatherCatV1.23B16,2013-11-23 08:16:00,
2013-11-22 23:21:00,22.8,17.9,29.45,WSW,247,1.6,1.6,81,0.00,,,0.02,WeatherCatV1.23B16,2013-11-23 08:21:00,
2013-11-22 23:26:00,22.6,18.0,29.45,WSW,247,0.0,0.0,82,0.00,,,0.02,WeatherCatV1.23B16,2013-11-23 08:26:00,
2013-11-22 23:31:00,22.5,17.8,29.45,WSW,247,0.0,0.0,82,0.00,,,0.02,WeatherCatV1.23B16,2013-11-23 08:31:00,
2013-11-22 23:36:00,22.3,17.6,29.45,WSW,247,0.0,0.0,82,0.00,,,0.02,WeatherCatV1.23B16,2013-11-23 08:36:00,
2013-11-22 23:41:00,21.9,17.2,29.46,WSW,247,0.0,0.0,82,0.00,,,0.02,WeatherCatV1.23B16,2013-11-23 08:41:00,
2013-11-22 23:46:00,21.9,17.2,29.46,WSW,247,0.0,0.0,82,0.00,,,0.02,WeatherCatV1.23B16,2013-11-23 08:46:00,
2013-11-22 23:51:00,21.7,17.1,29.45,WSW,247,0.0,0.0,82,0.00,,,0.02,WeatherCatV1.23B16,2013-11-23 08:51:00,
2013-11-22 23:56:00,21.7,17.3,29.45,WSW,247,0.0,0.0,83,0.00,,,0.02,WeatherCatV1.23B16,2013-11-23 08:56:00,